sensor_id;sensor_type;location;lat;lon;timestamp;pressure;altitude;pressure_sealevel;temperature;humidity
57572;BME280;44459;43.522;24.470;2023-01-29T00:01:03;100496.28;;;0.29;100.00
57572;BME280;44459;43.522;24.470;2023-01-29T00:03:29;100487.22;;;0.21;100.00
57572;BME280;44459;43.522;24.470;2023-01-29T00:05:54;100489.00;;;0.22;100.00
57572;BME280;44459;43.522;24.470;2023-01-29T00:08:20;100493.38;;;0.23;100.00
57572;BME280;44459;43.522;24.470;2023-01-29T00:10:45;100487.22;;;0.21;100.00
57572;BME280;44459;43.522;24.470;2023-01-29T00:13:11;100507.47;;;0.28;100.00
57572;BME280;44459;43.522;24.470;2023-01-29T00:15:36;100504.81;;;0.27;100.00
57572;BME280;44459;43.522;24.470;2023-01-29T00:18:02;100503.69;;;0.22;100.00
57572;BME280;44459;43.522;24.470;2023-01-29T00:20:27;100507.28;;;0.24;100.00
57572;BME280;44459;43.522;24.470;2023-01-29T00:22:53;100513.41;;;0.26;100.00
57572;BME280;44459;43.522;24.470;2023-01-29T00:25:18;100509.91;;;0.25;100.00
57572;BME280;44459;43.522;24.470;2023-01-29T00:27:44;100511.47;;;0.22;100.00
57572;BME280;44459;43.522;24.470;2023-01-29T00:30:09;100510.16;;;0.30;100.00
57572;BME280;44459;43.522;24.470;2023-01-29T00:32:43;100516.00;;;0.26;100.00
57572;BME280;44459;43.522;24.470;2023-01-29T00:35:08;100519.56;;;0.28;100.00
57572;BME280;44459;43.522;24.470;2023-01-29T00:37:34;100509.91;;;0.25;100.00
57572;BME280;44459;43.522;24.470;2023-01-29T00:40:00;100516.31;;;0.32;100.00
57572;BME280;44459;43.522;24.470;2023-01-29T00:42:25;100515.84;;;0.23;100.00
57572;BME280;44459;43.522;24.470;2023-01-29T00:45:10;100520.47;;;0.28;100.00
57572;BME280;44459;43.522;24.470;2023-01-29T00:47:36;100516.81;;;0.25;100.00
57572;BME280;44459;43.522;24.470;2023-01-29T00:50:04;100520.16;;;0.22;100.00
57572;BME280;44459;43.522;24.470;2023-01-29T00:52:30;100528.03;;;0.24;100.00
57572;BME280;44459;43.522;24.470;2023-01-29T00:55:00;100524.38;;;0.20;100.00
57572;BME280;44459;43.522;24.470;2023-01-29T00:57:27;100514.50;;;0.13;100.00
57572;BME280;44459;43.522;24.470;2023-01-29T00:59:53;100526.88;;;0.19;100.00
57572;BME280;44459;43.522;24.470;2023-01-29T01:02:19;100528.03;;;0.24;100.00
57572;BME280;44459;43.522;24.470;2023-01-29T01:05:04;100527.88;;;0.21;100.00
57572;BME280;44459;43.522;24.470;2023-01-29T01:07:38;100532.88;;;0.18;100.00
57572;BME280;44459;43.522;24.470;2023-01-29T01:10:04;100532.19;;;0.20;100.00
57572;BME280;44459;43.522;24.470;2023-01-29T01:13:04;100535.56;;;0.19;100.00
57572;BME280;44459;43.522;24.470;2023-01-29T01:15:33;100539.13;;;0.21;100.00
57572;BME280;44459;43.522;24.470;2023-01-29T01:18:00;100535.72;;;0.22;100.00
57572;BME280;44459;43.522;24.470;2023-01-29T01:20:28;100535.72;;;0.22;100.00
57572;BME280;44459;43.522;24.470;2023-01-29T01:22:54;100538.41;;;0.24;100.00
57572;BME280;44459;43.522;24.470;2023-01-29T01:25:24;100540.03;;;0.22;100.00
57572;BME280;44459;43.522;24.470;2023-01-29T01:27:54;100547.91;;;0.23;100.00
57572;BME280;44459;43.522;24.470;2023-01-29T01:30:22;100537.44;;;0.22;100.00
57572;BME280;44459;43.522;24.470;2023-01-29T01:32:48;100536.22;;;0.15;100.00
57572;BME280;44459;43.522;24.470;2023-01-29T01:35:13;100537.03;;;0.14;100.00
57572;BME280;44459;43.522;24.470;2023-01-29T01:37:39;100542.56;;;0.20;100.00
57572;BME280;44459;43.522;24.470;2023-01-29T01:40:07;100547.00;;;0.23;100.00
57572;BME280;44459;43.522;24.470;2023-01-29T01:42:40;100534.28;;;0.11;100.00
57572;BME280;44459;43.522;24.470;2023-01-29T01:45:13;100551.94;;;0.18;100.00
57572;BME280;44459;43.522;24.470;2023-01-29T01:48:35;100542.47;;;0.19;100.00
57572;BME280;44459;43.522;24.470;2023-01-29T01:50:45;100549.59;;;0.23;100.00
57572;BME280;44459;43.522;24.470;2023-01-29T01:53:15;100539.88;;;0.19;100.00
57572;BME280;44459;43.522;24.470;2023-01-29T01:55:47;100540.03;;;0.22;100.00
57572;BME280;44459;43.522;24.470;2023-01-29T01:58:22;100552.44;;;0.27;100.00
57572;BME280;44459;43.522;24.470;2023-01-29T02:00:49;100527.53;;;0.15;100.00
57572;BME280;44459;43.522;24.470;2023-01-29T02:03:14;100543.44;;;0.21;100.00
57572;BME280;44459;43.522;24.470;2023-01-29T02:06:00;100542.41;;;0.17;100.00
57572;BME280;44459;43.522;24.470;2023-01-29T02:09:05;100543.25;;;0.18;100.00
57572;BME280;44459;43.522;24.470;2023-01-29T02:11:52;100532.88;;;0.18;100.00
57572;BME280;44459;43.522;24.470;2023-01-29T02:14:18;100547.81;;;0.22;100.00
57572;BME280;44459;43.522;24.470;2023-01-29T02:16:43;100549.44;;;0.20;100.00
57572;BME280;44459;43.522;24.470;2023-01-29T02:19:16;100542.56;;;0.20;100.00
57572;BME280;44459;43.522;24.470;2023-01-29T02:27:15;100556.09;;;0.15;100.00
57572;BME280;44459;43.522;24.470;2023-01-29T02:32:38;100562.19;;;0.15;100.00
57572;BME280;44459;43.522;24.470;2023-01-29T02:35:21;100571.81;;;0.18;100.00
57572;BME280;44459;43.522;24.470;2023-01-29T02:41:04;100568.66;;;0.23;100.00
57572;BME280;44459;43.522;24.470;2023-01-29T02:49:21;100579.09;;;0.25;100.00
57572;BME280;44459;43.522;24.470;2023-01-29T02:52:05;100578.00;;;0.20;100.00
57572;BME280;44459;43.522;24.470;2023-01-29T02:57:21;100578.00;;;0.20;100.00
57572;BME280;44459;43.522;24.470;2023-01-29T02:59:53;100575.31;;;0.18;100.00
57572;BME280;44459;43.522;24.470;2023-01-29T03:02:24;100580.28;;;0.14;100.00
57572;BME280;44459;43.522;24.470;2023-01-29T03:04:59;100572.72;;;0.18;100.00
57572;BME280;44459;43.522;24.470;2023-01-29T03:07:31;100573.69;;;0.20;100.00
57572;BME280;44459;43.522;24.470;2023-01-29T03:10:14;100585.63;;;0.17;100.00
57572;BME280;44459;43.522;24.470;2023-01-29T03:12:43;100576.34;;;0.22;100.00
57572;BME280;44459;43.522;24.470;2023-01-29T03:15:17;100584.41;;;0.26;100.00
57572;BME280;44459;43.522;24.470;2023-01-29T03:20:29;100580.91;;;0.26;100.00
57572;BME280;44459;43.522;24.470;2023-01-29T03:23:10;100584.47;;;0.28;100.00
57572;BME280;44459;43.522;24.470;2023-01-29T03:25:39;100589.66;;;0.28;100.00
57572;BME280;44459;43.522;24.470;2023-01-29T03:28:26;100592.44;;;0.31;100.00
57572;BME280;44459;43.522;24.470;2023-01-29T03:31:13;100594.13;;;0.30;100.00
57572;BME280;44459;43.522;24.470;2023-01-29T03:34:12;100596.63;;;0.29;100.00
57572;BME280;44459;43.522;24.470;2023-01-29T03:39:15;100598.44;;;0.30;100.00
57572;BME280;44459;43.522;24.470;2023-01-29T03:41:49;100597.03;;;0.36;100.00
57572;BME280;44459;43.522;24.470;2023-01-29T03:49:31;100604.25;;;0.42;100.00
57572;BME280;44459;43.522;24.470;2023-01-29T03:52:17;100609.69;;;0.46;100.00
57572;BME280;44459;43.522;24.470;2023-01-29T03:57:37;100593.44;;;0.50;100.00
57572;BME280;44459;43.522;24.470;2023-01-29T04:00:14;100599.53;;;0.51;100.00
57572;BME280;44459;43.522;24.470;2023-01-29T04:02:52;100595.75;;;0.44;100.00
57572;BME280;44459;43.522;24.470;2023-01-29T04:05:24;100600.34;;;0.50;100.00
57572;BME280;44459;43.522;24.470;2023-01-29T04:07:55;100601.34;;;0.52;100.00
57572;BME280;44459;43.522;24.470;2023-01-29T04:10:24;100597.84;;;0.52;100.00
57572;BME280;44459;43.522;24.470;2023-01-29T04:13:05;100605.84;;;0.56;100.00
57572;BME280;44459;43.522;24.470;2023-01-29T04:15:37;100601.34;;;0.36;100.00
57572;BME280;44459;43.522;24.470;2023-01-29T04:18:05;100607.84;;;0.44;100.00
57572;BME280;44459;43.522;24.470;2023-01-29T04:20:30;100603.38;;;0.41;100.00
57572;BME280;44459;43.522;24.470;2023-01-29T04:22:56;100606.94;;;0.43;100.00
57572;BME280;44459;43.522;24.470;2023-01-29T04:25:23;100610.72;;;0.50;100.00
57572;BME280;44459;43.522;24.470;2023-01-29T04:33:27;100616.09;;;0.53;100.00
57572;BME280;44459;43.522;24.470;2023-01-29T04:44:22;100624.28;;;0.61;100.00
57572;BME280;44459;43.522;24.470;2023-01-29T04:47:10;100632.16;;;0.62;100.00
57572;BME280;44459;43.522;24.470;2023-01-29T04:52:48;100641.56;;;0.60;100.00
57572;BME280;44459;43.522;24.470;2023-01-29T04:55:20;100643.41;;;0.63;100.00
57572;BME280;44459;43.522;24.470;2023-01-29T04:57:53;100641.72;;;0.63;100.00
57572;BME280;44459;43.522;24.470;2023-01-29T05:00:32;100647.16;;;0.68;100.00
57572;BME280;44459;43.522;24.470;2023-01-29T05:03:00;100653.31;;;0.70;100.00
57572;BME280;44459;43.522;24.470;2023-01-29T05:05:26;100644.81;;;0.72;100.00
57572;BME280;44459;43.522;24.470;2023-01-29T05:07:53;100649.50;;;0.79;100.00
57572;BME280;44459;43.522;24.470;2023-01-29T05:10:20;100649.66;;;0.82;100.00
57572;BME280;44459;43.522;24.470;2023-01-29T05:12:52;100656.81;;;0.86;100.00
57572;BME280;44459;43.522;24.470;2023-01-29T05:15:25;100657.75;;;0.88;100.00
57572;BME280;44459;43.522;24.470;2023-01-29T05:17:53;100655.41;;;0.93;100.00
57572;BME280;44459;43.522;24.470;2023-01-29T05:20:26;100656.31;;;0.93;100.00
57572;BME280;44459;43.522;24.470;2023-01-29T05:22:52;100660.66;;;0.94;100.00
57572;BME280;44459;43.522;24.470;2023-01-29T05:25:23;100656.81;;;0.86;100.00
57572;BME280;44459;43.522;24.470;2023-01-29T05:27:50;100661.50;;;0.93;100.00
57572;BME280;44459;43.522;24.470;2023-01-29T05:30:37;100658.66;;;0.89;100.00
57572;BME280;44459;43.522;24.470;2023-01-29T05:33:04;100663.09;;;0.91;100.00
57572;BME280;44459;43.522;24.470;2023-01-29T05:35:30;100665.56;;;0.88;100.00
57572;BME280;44459;43.522;24.470;2023-01-29T05:37:56;100665.66;;;0.90;100.00
57572;BME280;44459;43.522;24.470;2023-01-29T05:40:23;100669.34;;;0.95;100.00
57572;BME280;44459;43.522;24.470;2023-01-29T05:42:49;100665.66;;;0.90;100.00
57572;BME280;44459;43.522;24.470;2023-01-29T05:45:15;100666.75;;;0.95;100.00
57572;BME280;44459;43.522;24.470;2023-01-29T05:47:41;100671.25;;;0.81;100.00
57572;BME280;44459;43.522;24.470;2023-01-29T05:50:09;100662.81;;;0.85;100.00
57572;BME280;44459;43.522;24.470;2023-01-29T05:52:34;100675.19;;;0.91;100.00
57572;BME280;44459;43.522;24.470;2023-01-29T05:55:00;100675.34;;;0.94;100.00
57572;BME280;44459;43.522;24.470;2023-01-29T05:57:25;100688.53;;;0.97;100.00
57572;BME280;44459;43.522;24.470;2023-01-29T05:59:51;100689.25;;;0.94;100.00
57572;BME280;44459;43.522;24.470;2023-01-29T06:02:16;100693.00;;;0.99;100.00
57572;BME280;44459;43.522;24.470;2023-01-29T06:04:41;100699.63;;;0.94;100.00
57572;BME280;44459;43.522;24.470;2023-01-29T06:07:07;100699.50;;;0.91;100.00
57572;BME280;44459;43.522;24.470;2023-01-29T06:09:32;100701.28;;;0.92;100.00
57572;BME280;44459;43.522;24.470;2023-01-29T06:11:58;100709.31;;;0.97;100.00
57572;BME280;44459;43.522;24.470;2023-01-29T06:14:23;100712.88;;;0.99;100.00
57572;BME280;44459;43.522;24.470;2023-01-29T06:16:49;100712.13;;;1.01;100.00
57572;BME280;44459;43.522;24.470;2023-01-29T06:19:14;100705.19;;;1.00;100.00
57572;BME280;44459;43.522;24.470;2023-01-29T06:21:41;100715.38;;;0.97;100.00
57572;BME280;44459;43.522;24.470;2023-01-29T06:24:07;100720.94;;;1.04;100.00
57572;BME280;44459;43.522;24.470;2023-01-29T06:26:33;100710.69;;;1.07;100.00
57572;BME280;44459;43.522;24.470;2023-01-29T06:28:58;100726.28;;;1.07;100.00
57572;BME280;44459;43.522;24.470;2023-01-29T06:31:23;100721.72;;;1.02;100.00
57572;BME280;44459;43.522;24.470;2023-01-29T06:33:49;100733.34;;;1.09;100.00
57572;BME280;44459;43.522;24.470;2023-01-29T06:36:14;100732.94;;;1.01;100.00
57572;BME280;44459;43.522;24.470;2023-01-29T06:38:40;100735.31;;;0.97;100.00
57572;BME280;44459;43.522;24.470;2023-01-29T06:41:14;100731.22;;;1.02;100.00
57572;BME280;44459;43.522;24.470;2023-01-29T06:43:43;100739.47;;;0.93;100.00
57572;BME280;44459;43.522;24.470;2023-01-29T06:46:09;100744.81;;;0.96;100.00
57572;BME280;44459;43.522;24.470;2023-01-29T06:48:34;100751.63;;;0.94;100.00
57572;BME280;44459;43.522;24.470;2023-01-29T06:51:04;100746.09;;;1.05;100.00
57572;BME280;44459;43.522;24.470;2023-01-29T06:53:31;100759.41;;;1.11;100.00
57572;BME280;44459;43.522;24.470;2023-01-29T06:55:57;100752.56;;;1.13;100.00
57572;BME280;44459;43.522;24.470;2023-01-29T06:58:22;100769.97;;;1.14;100.00
57572;BME280;44459;43.522;24.470;2023-01-29T07:00:48;100764.28;;;1.21;100.00
57572;BME280;44459;43.522;24.470;2023-01-29T07:03:13;100762.72;;;1.24;100.00
57572;BME280;44459;43.522;24.470;2023-01-29T07:05:39;100766.38;;;1.28;100.00
57572;BME280;44459;43.522;24.470;2023-01-29T07:08:04;100761.19;;;1.28;100.00
57572;BME280;44459;43.522;24.470;2023-01-29T07:10:30;100772.03;;;1.37;100.00
57572;BME280;44459;43.522;24.470;2023-01-29T07:12:57;100766.03;;;1.38;100.00
57572;BME280;44459;43.522;24.470;2023-01-29T07:15:23;100760.88;;;1.39;100.00
57572;BME280;44459;43.522;24.470;2023-01-29T07:17:56;100754.47;;;1.49;100.00
57572;BME280;44459;43.522;24.470;2023-01-29T07:20:23;100762.81;;;1.60;100.00
57572;BME280;44459;43.522;24.470;2023-01-29T07:22:48;100760.41;;;1.64;100.00
57572;BME280;44459;43.522;24.470;2023-01-29T07:25:14;100763.09;;;1.66;100.00
57572;BME280;44459;43.522;24.470;2023-01-29T07:27:39;100776.03;;;1.64;100.00
57572;BME280;44459;43.522;24.470;2023-01-29T07:30:05;100764.41;;;1.58;100.00
57572;BME280;44459;43.522;24.470;2023-01-29T07:32:31;100769.72;;;1.59;100.00
57572;BME280;44459;43.522;24.470;2023-01-29T07:34:56;100772.88;;;1.53;100.00
57572;BME280;44459;43.522;24.470;2023-01-29T07:37:21;100766.06;;;1.56;100.00
57572;BME280;44459;43.522;24.470;2023-01-29T07:39:47;100775.56;;;1.55;100.00
57572;BME280;44459;43.522;24.470;2023-01-29T07:42:12;100774.91;;;1.59;100.00
57572;BME280;44459;43.522;24.470;2023-01-29T07:44:38;100766.28;;;1.60;100.00
57572;BME280;44459;43.522;24.470;2023-01-29T07:47:03;100775.72;;;1.58;100.00
57572;BME280;44459;43.522;24.470;2023-01-29T07:49:29;100774.41;;;1.66;100.00
57572;BME280;44459;43.522;24.470;2023-01-29T07:51:54;100776.69;;;1.60;100.00
57572;BME280;44459;43.522;24.470;2023-01-29T07:54:20;100784.13;;;1.70;100.00
57572;BME280;44459;43.522;24.470;2023-01-29T07:56:45;100780.88;;;1.74;100.00
57572;BME280;44459;43.522;24.470;2023-01-29T07:59:11;100787.50;;;1.85;100.00
57572;BME280;44459;43.522;24.470;2023-01-29T08:01:36;100792.47;;;1.98;100.00
57572;BME280;44459;43.522;24.470;2023-01-29T08:04:01;100792.72;;;2.03;100.00
57572;BME280;44459;43.522;24.470;2023-01-29T08:06:27;100792.28;;;2.12;100.00
57572;BME280;44459;43.522;24.470;2023-01-29T08:08:52;100791.44;;;2.13;100.00
57572;BME280;44459;43.522;24.470;2023-01-29T08:11:19;100788.84;;;2.13;100.00
57572;BME280;44459;43.522;24.470;2023-01-29T08:13:45;100798.16;;;2.08;100.00
57572;BME280;44459;43.522;24.470;2023-01-29T08:16:10;100791.06;;;2.05;100.00
57572;BME280;44459;43.522;24.470;2023-01-29T08:18:37;100795.97;;;1.99;100.00
57572;BME280;44459;43.522;24.470;2023-01-29T08:21:02;100809.09;;;2.00;100.00
57572;BME280;44459;43.522;24.470;2023-01-29T08:23:28;100804.53;;;1.96;100.00
57572;BME280;44459;43.522;24.470;2023-01-29T08:25:54;100813.41;;;2.00;100.00
57572;BME280;44459;43.522;24.470;2023-01-29T08:28:19;100815.53;;;2.09;100.00
57572;BME280;44459;43.522;24.470;2023-01-29T08:30:45;100813.78;;;2.08;100.00
57572;BME280;44459;43.522;24.470;2023-01-29T08:33:10;100815.34;;;2.04;100.00
57572;BME280;44459;43.522;24.470;2023-01-29T08:35:36;100821.75;;;2.11;100.00
57572;BME280;44459;43.522;24.470;2023-01-29T08:38:03;100815.16;;;2.19;100.00
57572;BME280;44459;43.522;24.470;2023-01-29T08:40:31;100816.22;;;2.22;100.00
57572;BME280;44459;43.522;24.470;2023-01-29T08:42:58;100813.94;;;2.28;100.00
57572;BME280;44459;43.522;24.470;2023-01-29T08:45:23;100823.34;;;2.44;100.00
57572;BME280;44459;43.522;24.470;2023-01-29T08:47:49;100827.09;;;2.49;100.00
57572;BME280;44459;43.522;24.470;2023-01-29T08:50:16;100822.81;;;2.51;100.00
57572;BME280;44459;43.522;24.470;2023-01-29T08:52:42;100822.16;;;2.55;100.00
57572;BME280;44459;43.522;24.470;2023-01-29T08:55:08;100822.44;;;2.61;100.00
57572;BME280;44459;43.522;24.470;2023-01-29T08:57:34;100822.75;;;2.67;100.00
57572;BME280;44459;43.522;24.470;2023-01-29T08:59:59;100822.94;;;2.72;100.00
57572;BME280;44459;43.522;24.470;2023-01-29T09:02:25;100815.75;;;2.66;100.00
57572;BME280;44459;43.522;24.470;2023-01-29T09:04:50;100823.91;;;2.74;100.00
57572;BME280;44459;43.522;24.470;2023-01-29T09:07:16;100823.69;;;2.69;100.00
57572;BME280;44459;43.522;24.470;2023-01-29T09:09:41;100829.22;;;2.58;100.00
57572;BME280;44459;43.522;24.470;2023-01-29T09:12:06;100824.13;;;2.61;100.00
57572;BME280;44459;43.522;24.470;2023-01-29T09:14:32;100815.50;;;2.62;100.00
57572;BME280;44459;43.522;24.470;2023-01-29T09:16:57;100817.06;;;2.58;100.00
57572;BME280;44459;43.522;24.470;2023-01-29T09:19:23;100819.91;;;2.63;100.00
57572;BME280;44459;43.522;24.470;2023-01-29T09:21:48;100814.56;;;2.60;100.00
57572;BME280;44459;43.522;24.470;2023-01-29T09:24:14;100819.53;;;2.55;100.00
57572;BME280;44459;43.522;24.470;2023-01-29T09:26:39;100809.78;;;2.51;100.00
57572;BME280;44459;43.522;24.470;2023-01-29T09:29:05;100810.25;;;2.60;100.00
57572;BME280;44459;43.522;24.470;2023-01-29T09:31:30;100811.97;;;2.60;100.00
57572;BME280;44459;43.522;24.470;2023-01-29T09:33:56;100813.53;;;2.56;100.00
57572;BME280;44459;43.522;24.470;2023-01-29T09:36:21;100799.06;;;2.63;100.00
57572;BME280;44459;43.522;24.470;2023-01-29T09:38:47;100799.06;;;2.63;100.00
57572;BME280;44459;43.522;24.470;2023-01-29T09:44:13;100790.16;;;2.77;100.00
57572;BME280;44459;43.522;24.470;2023-01-29T09:46:43;100789.63;;;2.84;100.00
57572;BME280;44459;43.522;24.470;2023-01-29T09:49:25;100779.69;;;2.94;100.00
57572;BME280;44459;43.522;24.470;2023-01-29T09:52:00;100782.34;;;2.96;100.00
57572;BME280;44459;43.522;24.470;2023-01-29T09:54:33;100784.41;;;3.03;100.00
57572;BME280;44459;43.522;24.470;2023-01-29T09:57:12;100769.16;;;2.93;100.00
57572;BME280;44459;43.522;24.470;2023-01-29T09:59:41;100775.56;;;2.99;100.00
57572;BME280;44459;43.522;24.470;2023-01-29T10:10:51;100776.63;;;3.43;100.00
57572;BME280;44459;43.522;24.470;2023-01-29T10:13:43;100771.44;;;3.44;100.00
57572;BME280;44459;43.522;24.470;2023-01-29T10:16:24;100764.41;;;3.42;100.00
57572;BME280;44459;43.522;24.470;2023-01-29T10:18:59;100768.84;;;3.44;100.00
57572;BME280;44459;43.522;24.470;2023-01-29T10:24:07;100754.91;;;3.44;100.00
57572;BME280;44459;43.522;24.470;2023-01-29T10:26:36;100750.13;;;3.54;100.00
57572;BME280;44459;43.522;24.470;2023-01-29T10:29:06;100760.69;;;3.58;100.00
57572;BME280;44459;43.522;24.470;2023-01-29T10:31:36;100753.84;;;3.60;100.00
57572;BME280;44459;43.522;24.470;2023-01-29T10:34:20;100750.69;;;3.47;100.00
57572;BME280;44459;43.522;24.470;2023-01-29T10:36:48;100752.50;;;3.48;100.00
57572;BME280;44459;43.522;24.470;2023-01-29T10:39:18;100751.69;;;3.49;100.00
57572;BME280;44459;43.522;24.470;2023-01-29T10:45:04;100757.91;;;3.53;100.00
57572;BME280;44459;43.522;24.470;2023-01-29T10:47:47;100746.78;;;3.57;100.00
57572;BME280;44459;43.522;24.470;2023-01-29T11:00:38;100732.25;;;3.43;100.00
57572;BME280;44459;43.522;24.470;2023-01-29T11:03:25;100726.06;;;3.62;100.00
57572;BME280;44459;43.522;24.470;2023-01-29T11:08:42;100721.53;;;3.58;99.78
57572;BME280;44459;43.522;24.470;2023-01-29T11:11:15;100723.22;;;3.55;100.00
57572;BME280;44459;43.522;24.470;2023-01-29T11:14:00;100707.44;;;3.52;100.00
57572;BME280;44459;43.522;24.470;2023-01-29T11:16:31;100705.50;;;3.69;100.00
57572;BME280;44459;43.522;24.470;2023-01-29T11:19:03;100709.09;;;3.71;98.38
57572;BME280;44459;43.522;24.470;2023-01-29T11:21:29;100700.28;;;3.69;99.71
57572;BME280;44459;43.522;24.470;2023-01-29T11:24:13;100709.88;;;3.91;100.00
57572;BME280;44459;43.522;24.470;2023-01-29T11:26:45;100706.63;;;3.96;100.00
57572;BME280;44459;43.522;24.470;2023-01-29T11:29:33;100701.28;;;3.93;98.81
57572;BME280;44459;43.522;24.470;2023-01-29T11:32:08;100700.16;;;3.87;99.26
57572;BME280;44459;43.522;24.470;2023-01-29T11:34:58;100700.91;;;3.84;99.21
57572;BME280;44459;43.522;24.470;2023-01-29T11:37:31;100692.59;;;3.72;99.34
57572;BME280;44459;43.522;24.470;2023-01-29T11:39:57;100695.88;;;3.89;100.00
57572;BME280;44459;43.522;24.470;2023-01-29T11:42:23;100700.38;;;3.93;98.84
57572;BME280;44459;43.522;24.470;2023-01-29T11:44:48;100701.50;;;3.99;98.62
57572;BME280;44459;43.522;24.470;2023-01-29T11:49:48;100696.78;;;4.12;99.84
57572;BME280;44459;43.522;24.470;2023-01-29T11:52:16;100697.16;;;3.98;98.32
57572;BME280;44459;43.522;24.470;2023-01-29T11:54:49;100693.75;;;4.01;96.57
57572;BME280;44459;43.522;24.470;2023-01-29T11:57:34;100698.09;;;4.00;98.22
57572;BME280;44459;43.522;24.470;2023-01-29T12:02:44;100684.91;;;3.97;95.94
57572;BME280;44459;43.522;24.470;2023-01-29T12:07:43;100680.38;;;3.93;96.78
57572;BME280;44459;43.522;24.470;2023-01-29T12:10:39;100691.06;;;3.99;96.63
57572;BME280;44459;43.522;24.470;2023-01-29T12:15:34;100685.91;;;4.01;97.93
57572;BME280;44459;43.522;24.470;2023-01-29T12:18:11;100682.41;;;4.00;96.89
57572;BME280;44459;43.522;24.470;2023-01-29T12:20:45;100680.09;;;4.08;98.24
57572;BME280;44459;43.522;24.470;2023-01-29T12:25:42;100676.41;;;4.25;94.44
57572;BME280;44459;43.522;24.470;2023-01-29T12:31:37;100687.91;;;4.52;97.08
57572;BME280;44459;43.522;24.470;2023-01-29T12:34:19;100672.50;;;4.60;97.50
57572;BME280;44459;43.522;24.470;2023-01-29T12:36:55;100675.84;;;4.56;95.57
57572;BME280;44459;43.522;24.470;2023-01-29T12:39:23;100681.13;;;4.34;94.11
57572;BME280;44459;43.522;24.470;2023-01-29T12:47:43;100682.16;;;4.39;98.05
57572;BME280;44459;43.522;24.470;2023-01-29T12:52:48;100685.50;;;4.35;98.07
57572;BME280;44459;43.522;24.470;2023-01-29T12:57:56;100678.66;;;4.38;98.03
57572;BME280;44459;43.522;24.470;2023-01-29T13:00:25;100690.00;;;4.39;98.37
57572;BME280;44459;43.522;24.470;2023-01-29T13:03:03;100687.38;;;4.39;97.98
57572;BME280;44459;43.522;24.470;2023-01-29T13:05:40;100683.84;;;4.37;97.33
57572;BME280;44459;43.522;24.470;2023-01-29T13:08:16;100686.38;;;4.35;97.56
57572;BME280;44459;43.522;24.470;2023-01-29T13:10:48;100683.94;;;4.40;97.59
57572;BME280;44459;43.522;24.470;2023-01-29T13:13:30;100677.75;;;4.38;97.72
57572;BME280;44459;43.522;24.470;2023-01-29T13:15:58;100685.84;;;4.44;98.71
57572;BME280;44459;43.522;24.470;2023-01-29T13:18:46;100686.78;;;4.46;97.79
57572;BME280;44459;43.522;24.470;2023-01-29T13:21:25;100685.72;;;4.41;98.03
57572;BME280;44459;43.522;24.470;2023-01-29T13:24:24;100687.38;;;4.39;97.88
57572;BME280;44459;43.522;24.470;2023-01-29T13:26:52;100683.84;;;4.37;98.14
57572;BME280;44459;43.522;24.470;2023-01-29T13:29:28;100688.22;;;4.38;98.88
57572;BME280;44459;43.522;24.470;2023-01-29T13:31:55;100689.06;;;4.37;99.08
57572;BME280;44459;43.522;24.470;2023-01-29T13:34:30;100693.31;;;4.35;97.76
57572;BME280;44459;43.522;24.470;2023-01-29T13:36:59;100697.38;;;4.27;97.91
57572;BME280;44459;43.522;24.470;2023-01-29T13:39:31;100691.59;;;4.35;98.55
57572;BME280;44459;43.522;24.470;2023-01-29T13:42:00;100694.28;;;4.37;98.45
57572;BME280;44459;43.522;24.470;2023-01-29T13:44:35;100696.00;;;4.36;99.04
57572;BME280;44459;43.522;24.470;2023-01-29T13:47:08;100697.22;;;4.22;97.00
57572;BME280;44459;43.522;24.470;2023-01-29T13:52:25;100704.97;;;4.21;98.50
57572;BME280;44459;43.522;24.470;2023-01-29T13:54:53;100700.53;;;4.18;98.04
57572;BME280;44459;43.522;24.470;2023-01-29T14:05:56;100696.19;;;4.19;97.61
57572;BME280;44459;43.522;24.470;2023-01-29T14:08:43;100697.38;;;4.27;98.65
57572;BME280;44459;43.522;24.470;2023-01-29T14:13:37;100693.00;;;4.26;99.01
57572;BME280;44459;43.522;24.470;2023-01-29T14:18:29;100698.00;;;4.20;99.38
57572;BME280;44459;43.522;24.470;2023-01-29T14:20:59;100693.34;;;4.13;99.07
57572;BME280;44459;43.522;24.470;2023-01-29T14:23:50;100702.72;;;4.07;99.24
57572;BME280;44459;43.522;24.470;2023-01-29T14:31:47;100704.56;;;3.88;100.00
57572;BME280;44459;43.522;24.470;2023-01-29T14:34:21;100702.56;;;3.82;100.00
57572;BME280;44459;43.522;24.470;2023-01-29T14:36:49;100713.59;;;3.75;100.00
57572;BME280;44459;43.522;24.470;2023-01-29T14:39:28;100701.69;;;3.61;100.00
57572;BME280;44459;43.522;24.470;2023-01-29T14:41:56;100714.44;;;3.53;100.00
57572;BME280;44459;43.522;24.470;2023-01-29T14:47:22;100716.72;;;3.46;100.00
57572;BME280;44459;43.522;24.470;2023-01-29T14:53:29;100710.28;;;3.38;100.00
57572;BME280;44459;43.522;24.470;2023-01-29T14:58:48;100714.59;;;3.37;100.00
57572;BME280;44459;43.522;24.470;2023-01-29T15:01:21;100711.09;;;3.37;100.00
57572;BME280;44459;43.522;24.470;2023-01-29T15:03:50;100707.56;;;3.35;100.00
57572;BME280;44459;43.522;24.470;2023-01-29T15:06:31;100709.28;;;3.34;100.00
57572;BME280;44459;43.522;24.470;2023-01-29T15:09:20;100710.97;;;3.34;100.00
57572;BME280;44459;43.522;24.470;2023-01-29T15:11:59;100707.31;;;3.29;100.00
57572;BME280;44459;43.522;24.470;2023-01-29T15:14:34;100702.53;;;3.19;100.00
57572;BME280;44459;43.522;24.470;2023-01-29T15:19:48;100703.13;;;3.13;100.00
57572;BME280;44459;43.522;24.470;2023-01-29T15:22:16;100702.97;;;3.09;100.00